createdAt,value
2018-03-17T00:01:54.973Z,36.40
2018-03-17T00:04:23.083Z,37.03
2018-03-17T00:06:51.956Z,38.08
2018-03-17T00:09:20.863Z,39.88
2018-03-17T00:11:49.853Z,37.65
2018-03-17T00:14:18.845Z,36.50
2018-03-17T00:16:47.718Z,35.67
2018-03-17T00:19:16.595Z,38.15
2018-03-17T00:21:44.726Z,36.88
2018-03-17T00:24:12.843Z,37.22
2018-03-17T00:26:41.039Z,36.25
2018-03-17T00:29:09.918Z,36.05
2018-03-17T00:31:38.839Z,37.53
2018-03-17T00:34:07.007Z,38.05
2018-03-17T00:36:35.177Z,38.13
2018-03-17T00:39:03.286Z,37.75
2018-03-17T00:41:31.408Z,39.70
2018-03-17T00:44:00.294Z,37.53
2018-03-17T00:46:29.176Z,36.17
2018-03-17T00:48:57.372Z,36.72
2018-03-17T00:51:26.358Z,36.80
2018-03-17T00:53:55.362Z,37.03
2018-03-17T00:56:24.243Z,36.85
2018-03-17T00:58:53.110Z,37.72
2018-03-17T01:01:21.229Z,36.92
2018-03-17T01:03:49.360Z,36.60
2018-03-17T01:06:17.481Z,36.70
2018-03-17T01:08:45.596Z,37.10
2018-03-17T01:11:13.724Z,35.30
2018-03-17T01:13:41.856Z,34.42
2018-03-17T01:16:10.735Z,33.53
2018-03-17T01:18:38.840Z,34.53
2018-03-17T01:21:06.984Z,35.38
2018-03-17T01:23:35.960Z,35.47
2018-03-17T01:26:04.067Z,34.42
2018-03-17T01:28:32.198Z,34.40
2018-03-17T01:31:00.312Z,33.55
2018-03-17T01:33:28.439Z,34.60
2018-03-17T01:35:56.552Z,33.65
2018-03-17T01:38:25.460Z,35.28
2018-03-17T01:40:53.583Z,35.70
2018-03-17T01:43:21.724Z,35.80
2018-03-17T01:45:49.867Z,35.28
2018-03-17T01:48:18.737Z,36.13
2018-03-17T01:50:47.624Z,34.88
2018-03-17T01:53:16.524Z,36.10
2018-03-17T01:55:45.407Z,35.63
2018-03-17T01:58:14.272Z,35.10
2018-03-17T02:00:42.485Z,35.88
2018-03-17T02:03:10.600Z,34.90
2018-03-17T02:05:38.754Z,36.72
2018-03-17T02:08:06.904Z,35.75
2018-03-17T02:10:35.020Z,36.97
2018-03-17T02:13:03.253Z,36.15
2018-03-17T02:15:32.164Z,35.47
2018-03-17T02:18:00.319Z,35.45
2018-03-17T02:20:28.431Z,36.33
2018-03-17T02:22:56.552Z,36.60
2018-03-17T02:25:24.728Z,35.65
2018-03-17T02:27:53.600Z,35.53
2018-03-17T02:30:21.704Z,36.80
2018-03-17T02:32:49.853Z,36.45
2018-03-17T02:35:18.736Z,38.10
2018-03-17T02:37:47.622Z,37.33
2018-03-17T02:40:15.734Z,38.42
2018-03-17T02:42:43.847Z,38.33
2018-03-17T02:45:11.968Z,37.67
2018-03-17T02:47:40.072Z,38.70
2018-03-17T02:50:08.192Z,37.72
2018-03-17T02:52:37.092Z,38.08
2018-03-17T02:55:05.984Z,37.25
2018-03-17T02:57:34.099Z,37.25
2018-03-17T03:00:02.221Z,37.13
2018-03-17T03:02:31.143Z,37.25
2018-03-17T03:04:59.259Z,37.10
2018-03-17T03:07:27.463Z,35.90
2018-03-17T03:09:55.580Z,35.38
2018-03-17T03:12:23.709Z,35.53
2018-03-17T03:14:51.836Z,34.95
2018-03-17T03:17:21.451Z,35.58
2018-03-17T03:19:49.664Z,34.67
2018-03-17T03:22:17.791Z,35.65
2018-03-17T03:24:45.943Z,34.83
2018-03-17T03:27:14.067Z,33.53
2018-03-17T03:29:42.937Z,35.47
2018-03-17T03:32:11.061Z,34.50
2018-03-17T03:34:39.187Z,33.58
2018-03-17T03:37:08.071Z,35.00
2018-03-17T03:39:36.271Z,33.70
2018-03-17T03:42:04.415Z,33.60
2018-03-17T03:44:32.528Z,33.40
2018-03-17T03:47:00.687Z,33.38
2018-03-17T03:49:28.811Z,33.90
2018-03-17T03:51:56.920Z,35.50
2018-03-17T03:54:25.839Z,33.75
2018-03-17T03:56:53.955Z,35.00
2018-03-17T03:59:22.064Z,36.03
2018-03-17T04:01:50.189Z,34.70
2018-03-17T04:04:18.309Z,34.03
2018-03-17T04:06:47.303Z,31.87
2018-03-17T04:09:15.415Z,34.08
2018-03-17T04:11:43.547Z,34.35
2018-03-17T04:14:11.671Z,32.70
2018-03-17T04:16:39.817Z,33.47
2018-03-17T04:19:07.931Z,33.17
2018-03-17T04:21:36.827Z,33.45
2018-03-17T04:24:05.018Z,32.25
2018-03-17T04:26:33.953Z,30.35
2018-03-17T04:29:02.064Z,31.42
2018-03-17T04:31:30.168Z,29.63
2018-03-17T04:33:58.286Z,31.95
2018-03-17T04:36:26.430Z,30.77
2018-03-17T04:38:54.577Z,30.30
2018-03-17T04:41:22.688Z,31.95
2018-03-17T04:43:50.928Z,31.42
2018-03-17T04:46:19.093Z,30.98
2018-03-17T04:48:47.984Z,30.70
2018-03-17T04:51:16.869Z,30.20
2018-03-17T04:53:45.772Z,30.35
2018-03-17T04:56:13.946Z,31.05
2018-03-17T04:58:42.080Z,31.55
2018-03-17T05:01:10.220Z,31.33
2018-03-17T05:03:38.347Z,31.42
2018-03-17T05:06:07.224Z,32.35
2018-03-17T05:08:35.332Z,30.60
2018-03-17T05:11:03.469Z,30.35
2018-03-17T05:13:31.576Z,29.85
2018-03-17T05:15:59.728Z,28.58
2018-03-17T05:18:28.615Z,29.63
2018-03-17T05:20:57.490Z,29.27
2018-03-17T05:23:25.611Z,28.42
2018-03-17T05:25:53.748Z,27.67
2018-03-17T05:28:22.623Z,28.42
2018-03-17T05:30:50.745Z,28.17
2018-03-17T05:33:18.872Z,31.62
2018-03-17T05:35:47.772Z,30.37
2018-03-17T05:38:16.636Z,31.17
2018-03-17T05:40:44.757Z,29.08
2018-03-17T05:43:12.884Z,29.02
2018-03-17T05:45:41.009Z,29.02
2018-03-17T05:48:09.127Z,28.38
2018-03-17T05:50:37.241Z,29.77
2018-03-17T05:53:05.387Z,29.48
2018-03-17T05:55:34.294Z,30.10
2018-03-17T05:58:02.416Z,30.60
2018-03-17T06:00:30.531Z,29.83
2018-03-17T06:02:59.417Z,31.62
2018-03-17T06:05:28.290Z,30.65
2018-03-17T06:07:56.413Z,28.85
2018-03-17T06:10:24.564Z,29.83
2018-03-17T06:12:52.674Z,28.23
2018-03-17T06:15:20.909Z,28.33
2018-03-17T06:17:49.031Z,28.90
2018-03-17T06:20:17.158Z,30.62
2018-03-17T06:22:45.323Z,30.75
2018-03-17T06:25:13.451Z,30.23
2018-03-17T06:27:41.583Z,30.83
2018-03-17T06:30:09.738Z,31.00
2018-03-17T06:32:37.867Z,32.50
2018-03-17T06:35:06.001Z,33.67
2018-03-17T06:37:34.125Z,34.30
2018-03-17T06:40:02.281Z,33.05
2018-03-17T06:42:30.406Z,33.85
2018-03-17T06:44:58.519Z,33.42
2018-03-17T06:47:26.735Z,34.20
2018-03-17T06:49:55.625Z,33.35
2018-03-17T06:52:24.540Z,32.60
2018-03-17T06:54:52.653Z,33.53
2018-03-17T06:57:20.768Z,34.50
2018-03-17T06:59:48.891Z,34.90
2018-03-17T07:02:16.999Z,34.45
2018-03-17T07:04:45.911Z,34.63
2018-03-17T07:07:14.031Z,32.75
2018-03-17T07:09:42.171Z,35.28
2018-03-17T07:12:10.288Z,33.47
2018-03-17T07:14:39.181Z,35.08
2018-03-17T07:17:07.303Z,31.00
2018-03-17T07:19:35.418Z,32.45
2018-03-17T07:22:05.036Z,32.92
2018-03-17T07:24:33.923Z,32.80
2018-03-17T07:27:02.050Z,31.77
2018-03-17T07:29:30.157Z,30.80
2018-03-17T07:31:58.364Z,30.75
2018-03-17T07:34:27.263Z,29.63
2018-03-17T07:36:55.389Z,29.52
2018-03-17T07:39:23.508Z,30.77
2018-03-17T07:41:51.652Z,30.27
2018-03-17T07:44:20.527Z,29.00
2018-03-17T07:46:48.642Z,27.83
2018-03-17T07:49:16.895Z,28.92
2018-03-17T07:51:45.670Z,25.23
2018-03-17T07:54:14.575Z,24.00
2018-03-17T07:56:42.710Z,23.40
2018-03-17T07:59:10.844Z,25.15
2018-03-17T08:01:39.000Z,24.75
2018-03-17T08:04:07.136Z,26.00
2018-03-17T08:06:35.288Z,23.77
2018-03-17T08:09:03.404Z,25.55
2018-03-17T08:11:32.308Z,24.37
2018-03-17T08:14:01.159Z,24.35
2018-03-17T08:16:30.808Z,21.40
2018-03-17T08:18:58.944Z,21.30
2018-03-17T08:21:27.057Z,20.77
2018-03-17T08:23:55.321Z,21.75
2018-03-17T08:26:24.222Z,20.67
2018-03-17T08:28:53.135Z,21.23
2018-03-17T08:31:21.273Z,20.35
2018-03-17T08:33:50.159Z,20.33
2018-03-17T08:36:19.059Z,20.02
2018-03-17T08:38:47.178Z,20.83
2018-03-17T08:41:15.293Z,22.00
2018-03-17T08:43:43.477Z,22.75
2018-03-17T08:46:11.645Z,21.48
2018-03-17T08:48:39.820Z,21.42
2018-03-17T08:51:08.752Z,21.00
2018-03-17T08:53:37.609Z,19.35
2018-03-17T08:56:05.726Z,20.12
2018-03-17T08:58:33.872Z,19.37
2018-03-17T09:01:01.986Z,20.25
2018-03-17T09:03:30.098Z,19.23
2018-03-17T09:05:58.234Z,20.02
2018-03-17T09:08:26.446Z,18.92
2018-03-17T09:10:54.606Z,19.73
2018-03-17T09:13:22.776Z,19.00
2018-03-17T09:15:50.952Z,18.55
2018-03-17T09:18:19.105Z,20.05
2018-03-17T09:20:47.205Z,19.05
2018-03-17T09:23:15.368Z,18.48
2018-03-17T09:25:43.513Z,18.67
2018-03-17T09:28:11.668Z,18.05
2018-03-17T09:30:39.824Z,20.10
2018-03-17T09:33:07.934Z,18.77
2018-03-17T09:35:36.062Z,18.52
2018-03-17T09:38:04.195Z,18.73
2018-03-17T09:40:33.076Z,18.67
2018-03-17T09:43:01.968Z,19.58
2018-03-17T09:45:30.848Z,19.33
2018-03-17T09:47:59.744Z,18.45
2018-03-17T09:50:28.628Z,18.60
2018-03-17T09:52:57.528Z,17.85
2018-03-17T09:55:26.449Z,18.52
2018-03-17T09:57:54.560Z,17.87
2018-03-17T10:00:22.688Z,19.60
2018-03-17T10:02:50.804Z,15.85
2018-03-17T10:05:18.908Z,18.15
2018-03-17T10:07:47.800Z,18.62
2018-03-17T10:10:16.696Z,17.70
2018-03-17T10:12:44.804Z,17.45
2018-03-17T10:15:12.928Z,17.73
2018-03-17T10:17:41.853Z,17.12
2018-03-17T10:20:09.975Z,17.98
2018-03-17T10:22:38.088Z,17.17
2018-03-17T10:25:06.208Z,18.05
2018-03-17T10:27:34.339Z,17.87
2018-03-17T10:30:02.502Z,17.80
2018-03-17T10:32:30.608Z,17.80
2018-03-17T10:34:58.728Z,17.67
2018-03-17T10:37:27.620Z,15.57
2018-03-17T10:39:56.521Z,16.83
2018-03-17T10:42:24.653Z,17.12
2018-03-17T10:44:52.768Z,17.27
2018-03-17T10:47:20.967Z,16.87
2018-03-17T10:49:49.090Z,17.35
2018-03-17T10:52:17.959Z,18.17
2018-03-17T10:54:46.091Z,17.60
2018-03-17T10:57:14.197Z,15.90
2018-03-17T10:59:42.355Z,17.15
2018-03-17T11:02:10.476Z,17.30
2018-03-17T11:04:39.369Z,16.67
2018-03-17T11:07:08.293Z,16.58
2018-03-17T11:09:36.383Z,16.58
2018-03-17T11:12:04.513Z,18.52
2018-03-17T11:14:32.671Z,17.35
2018-03-17T11:17:01.553Z,17.23
2018-03-17T11:19:30.497Z,16.87
2018-03-17T11:21:58.623Z,16.45
2018-03-17T11:24:27.526Z,15.95
2018-03-17T11:26:55.695Z,16.65
2018-03-17T11:29:23.813Z,17.25
2018-03-17T11:31:51.981Z,16.73
2018-03-17T11:34:20.103Z,16.15
2018-03-17T11:36:48.273Z,15.43
2018-03-17T11:39:17.149Z,16.60
2018-03-17T11:41:45.268Z,17.62
2018-03-17T11:44:13.408Z,16.02
2018-03-17T11:46:42.359Z,16.67
2018-03-17T11:49:10.511Z,16.60
2018-03-17T11:51:38.610Z,16.15
2018-03-17T11:54:06.729Z,16.10
2018-03-17T11:56:34.845Z,16.35
2018-03-17T11:59:03.171Z,16.15
2018-03-17T12:01:31.448Z,17.95
2018-03-17T12:03:59.583Z,14.07
2018-03-17T12:06:27.787Z,15.43
2018-03-17T12:08:56.673Z,16.55
2018-03-17T12:11:25.549Z,16.15
2018-03-17T12:13:53.842Z,16.02
2018-03-17T12:16:21.981Z,14.13
2018-03-17T12:18:50.109Z,16.10
2018-03-17T12:21:18.239Z,14.57
2018-03-17T12:23:46.345Z,15.30
2018-03-17T12:26:14.467Z,15.73
2018-03-17T12:28:44.093Z,15.68
2018-03-17T12:31:12.967Z,14.30
2018-03-17T12:33:41.096Z,15.32
2018-03-17T12:36:09.327Z,14.50
2018-03-17T12:38:38.202Z,16.27
2018-03-17T12:41:06.404Z,15.65
2018-03-17T12:43:35.322Z,15.70
2018-03-17T12:46:03.444Z,15.20
2018-03-17T12:48:31.674Z,13.00
2018-03-17T12:50:59.796Z,15.20
2018-03-17T12:53:28.808Z,14.87
2018-03-17T12:55:57.702Z,14.40
2018-03-17T12:58:25.857Z,15.63
2018-03-17T13:00:54.747Z,14.52
2018-03-17T13:03:23.680Z,15.40
2018-03-17T13:05:51.800Z,15.45
2018-03-17T13:08:19.916Z,14.75
2018-03-17T13:10:48.033Z,15.50
2018-03-17T13:13:16.159Z,14.13
2018-03-17T13:15:44.310Z,13.25
2018-03-17T13:18:13.216Z,14.68
2018-03-17T13:20:41.351Z,14.00
2018-03-17T13:23:18.355Z,14.25
2018-03-17T13:25:46.503Z,13.65
2018-03-17T13:28:36.407Z,14.23
2018-03-17T13:31:04.538Z,13.13
2018-03-17T13:33:32.672Z,13.65
2018-03-17T13:36:12.757Z,13.62
2018-03-17T13:38:41.011Z,12.85
2018-03-17T13:41:09.116Z,11.80
2018-03-17T13:43:37.253Z,12.32
2018-03-17T13:46:05.403Z,12.32
2018-03-17T13:48:33.513Z,12.35
2018-03-17T13:51:01.631Z,12.88
2018-03-17T13:53:30.547Z,13.43
2018-03-17T13:55:58.666Z,11.52
2018-03-17T13:58:26.785Z,10.95
2018-03-17T14:00:54.893Z,11.35
2018-03-17T14:03:23.079Z,12.18
2018-03-17T14:05:51.992Z,11.85
2018-03-17T14:08:20.874Z,11.02
2018-03-17T14:10:49.024Z,12.25
2018-03-17T14:13:17.206Z,11.60
2018-03-17T14:15:46.018Z,12.02
2018-03-17T14:18:14.912Z,11.85
2018-03-17T14:20:43.785Z,11.52
2018-03-17T14:23:11.960Z,11.68
2018-03-17T14:25:40.092Z,11.73
2018-03-17T14:28:08.182Z,12.82
2018-03-17T14:30:36.302Z,11.77
2018-03-17T14:33:04.448Z,11.25
2018-03-17T14:35:32.586Z,11.90
2018-03-17T14:38:00.742Z,12.15
2018-03-17T14:40:28.852Z,12.98
2018-03-17T14:42:58.468Z,11.32
2018-03-17T14:45:26.664Z,12.48
2018-03-17T14:47:54.871Z,12.10
2018-03-17T14:50:22.970Z,11.40
2018-03-17T14:52:51.084Z,11.48
2018-03-17T14:55:19.220Z,11.77
2018-03-17T14:57:47.425Z,11.12
2018-03-17T15:00:16.303Z,11.23
2018-03-17T15:02:45.224Z,12.07
2018-03-17T15:05:13.412Z,11.95
2018-03-17T15:07:41.554Z,11.90
2018-03-17T15:10:10.420Z,11.65
2018-03-17T15:12:38.648Z,11.77
2018-03-17T15:15:06.756Z,11.55
2018-03-17T15:17:34.874Z,11.80
2018-03-17T15:20:03.747Z,11.38
2018-03-17T15:22:32.636Z,11.10
2018-03-17T15:25:00.904Z,10.55
2018-03-17T15:27:29.056Z,11.50
2018-03-17T15:29:57.175Z,11.85
2018-03-17T15:32:25.337Z,12.68
2018-03-17T15:34:54.253Z,12.20
2018-03-17T15:37:22.386Z,10.27
2018-03-17T15:39:51.278Z,11.98
2018-03-17T15:42:19.412Z,11.95
2018-03-17T15:44:47.618Z,11.88
2018-03-17T15:47:16.624Z,11.93
2018-03-17T15:49:44.754Z,11.70
2018-03-17T15:52:12.932Z,12.05
2018-03-17T15:54:41.052Z,11.85
2018-03-17T15:57:09.218Z,11.75
2018-03-17T15:59:37.380Z,11.38
2018-03-17T16:02:06.256Z,11.32
2018-03-17T16:04:35.156Z,11.50
2018-03-17T16:07:04.157Z,11.55
2018-03-17T16:09:33.036Z,9.75
2018-03-17T16:12:02.046Z,12.20
2018-03-17T16:14:30.156Z,11.38
2018-03-17T16:16:58.305Z,10.73
2018-03-17T16:19:26.642Z,11.48
2018-03-17T16:21:55.562Z,11.77
2018-03-17T16:24:24.800Z,11.57
2018-03-17T16:26:52.917Z,10.57
2018-03-17T16:29:21.796Z,11.45
2018-03-17T16:31:50.679Z,11.55
2018-03-17T16:34:18.809Z,11.12
2018-03-17T16:36:47.062Z,11.18
2018-03-17T16:39:15.330Z,10.95
2018-03-17T16:41:43.421Z,11.23
2018-03-17T16:44:11.531Z,10.93
2018-03-17T16:46:39.767Z,11.68
2018-03-17T16:49:07.891Z,11.88
2018-03-17T16:51:36.017Z,10.65
2018-03-17T16:54:04.163Z,10.50
2018-03-17T16:56:32.295Z,11.68
2018-03-17T16:59:00.409Z,11.15
2018-03-17T17:01:28.530Z,11.32
2018-03-17T17:03:56.773Z,11.25
2018-03-17T17:06:24.947Z,10.48
2018-03-17T17:08:53.084Z,10.80
2018-03-17T17:11:21.998Z,10.95
2018-03-17T17:13:50.091Z,10.80
2018-03-17T17:16:18.251Z,10.48
2018-03-17T17:18:46.412Z,10.85
2018-03-17T17:21:14.599Z,11.30
2018-03-17T17:23:42.771Z,10.98
2018-03-17T17:26:10.892Z,10.43
2018-03-17T17:28:39.081Z,11.23
2018-03-17T17:31:07.967Z,10.52
2018-03-17T17:33:36.839Z,10.57
2018-03-17T17:36:05.083Z,10.32
2018-03-17T17:38:33.201Z,10.43
2018-03-17T17:41:02.110Z,10.88
2018-03-17T17:43:30.259Z,10.15
2018-03-17T17:45:58.560Z,11.12
2018-03-17T17:48:26.660Z,10.98
2018-03-17T17:50:54.816Z,10.57
2018-03-17T17:53:22.933Z,10.52
2018-03-17T17:55:51.079Z,10.45
2018-03-17T17:58:19.205Z,10.60
2018-03-17T18:00:48.112Z,10.20
2018-03-17T18:03:16.227Z,11.07
2018-03-17T18:05:44.349Z,10.40
2018-03-17T18:08:12.511Z,11.15
2018-03-17T18:10:41.399Z,11.05
2018-03-17T18:13:10.271Z,11.70
2018-03-17T18:15:38.471Z,11.12
2018-03-17T18:18:07.371Z,11.48
2018-03-17T18:20:35.487Z,11.05
2018-03-17T18:23:03.705Z,11.25
2018-03-17T18:25:32.625Z,11.07
2018-03-17T18:28:00.775Z,10.70
2018-03-17T18:30:28.898Z,11.10
2018-03-17T18:32:57.015Z,11.20
2018-03-17T18:35:25.190Z,10.93
2018-03-17T18:37:53.327Z,11.30
2018-03-17T18:40:21.462Z,10.32
2018-03-17T18:42:49.616Z,11.07
2018-03-17T18:45:17.772Z,11.93
2018-03-17T18:47:45.850Z,11.63
2018-03-17T18:50:13.998Z,10.95
2018-03-17T18:52:42.888Z,10.75
2018-03-17T18:55:11.798Z,11.25
2018-03-17T18:57:40.701Z,11.35
2018-03-17T19:00:08.826Z,10.63
2018-03-17T19:02:37.032Z,11.12
2018-03-17T19:05:05.928Z,11.80
2018-03-17T19:07:34.050Z,11.73
2018-03-17T19:10:02.188Z,11.02
2018-03-17T19:12:30.298Z,12.18
2018-03-17T19:14:58.405Z,10.77
2018-03-17T19:17:27.345Z,11.63
2018-03-17T19:19:55.492Z,12.35
2018-03-17T19:22:23.740Z,11.80
2018-03-17T19:24:52.629Z,11.35
2018-03-17T19:27:21.560Z,11.55
2018-03-17T19:29:49.660Z,11.35
2018-03-17T19:32:17.831Z,11.93
2018-03-17T19:34:45.900Z,11.30
2018-03-17T19:37:14.048Z,12.57
2018-03-17T19:39:42.300Z,11.57
2018-03-17T19:42:10.428Z,12.05
2018-03-17T19:44:38.640Z,11.35
2018-03-17T19:47:06.796Z,11.80
2018-03-17T19:49:34.931Z,12.27
2018-03-17T19:52:03.051Z,11.73
2018-03-17T19:54:31.952Z,11.12
2018-03-17T19:57:00.077Z,12.18
2018-03-17T19:59:28.296Z,11.68
2018-03-17T20:01:56.470Z,11.95
2018-03-17T20:04:24.578Z,11.88
2018-03-17T20:06:52.706Z,12.60
2018-03-17T20:09:21.600Z,12.00
2018-03-17T20:11:49.778Z,12.00
2018-03-17T20:14:17.973Z,11.55
2018-03-17T20:16:46.031Z,12.23
2018-03-17T20:19:14.308Z,12.25
2018-03-17T20:21:43.180Z,11.85
2018-03-17T20:24:12.065Z,12.25
2018-03-17T20:26:40.963Z,10.68
2018-03-17T20:29:09.115Z,12.70
2018-03-17T20:31:38.022Z,12.15
2018-03-17T20:34:06.919Z,12.00
2018-03-17T20:36:35.123Z,12.45
2018-03-17T20:39:03.276Z,11.57
2018-03-17T20:41:31.407Z,12.00
2018-03-17T20:43:59.531Z,12.50
2018-03-17T20:46:27.681Z,11.98
2018-03-17T20:48:55.859Z,11.80
2018-03-17T20:51:23.991Z,12.10
2018-03-17T20:53:52.195Z,11.63
2018-03-17T20:56:20.311Z,11.50
2018-03-17T20:58:48.467Z,11.77
2018-03-17T21:01:16.608Z,10.63
2018-03-17T21:03:44.729Z,12.05
2018-03-17T21:06:12.851Z,12.05
2018-03-17T21:08:41.741Z,11.80
2018-03-17T21:11:10.675Z,11.85
2018-03-17T21:13:38.805Z,12.02
2018-03-17T21:16:07.686Z,12.52
2018-03-17T21:18:36.589Z,12.13
2018-03-17T21:21:04.739Z,12.37
2018-03-17T21:23:33.643Z,12.48
2018-03-17T21:26:02.527Z,11.82
2018-03-17T21:28:31.423Z,10.90
2018-03-17T21:31:00.353Z,12.18
2018-03-17T21:33:28.495Z,11.38
2018-03-17T21:35:56.611Z,11.80
2018-03-17T21:38:24.769Z,11.77
2018-03-17T21:40:52.959Z,11.73
2018-03-17T21:43:21.785Z,11.63
2018-03-17T21:45:50.672Z,12.13
2018-03-17T21:48:19.602Z,11.65
2018-03-17T21:50:48.058Z,11.15
2018-03-17T21:55:51.460Z,12.30
2018-03-17T21:58:20.358Z,12.52
2018-03-17T22:00:49.259Z,12.02
2018-03-17T22:03:18.248Z,11.73
2018-03-17T22:05:46.354Z,12.15
2018-03-17T22:08:14.484Z,12.15
2018-03-17T22:10:42.642Z,11.45
2018-03-17T22:13:11.521Z,11.63
2018-03-17T22:15:39.636Z,11.48
2018-03-17T22:18:07.766Z,11.32
2018-03-17T22:20:35.892Z,11.68
2018-03-17T22:23:04.128Z,11.45
2018-03-17T22:25:33.029Z,11.02
2018-03-17T22:28:01.204Z,11.45
2018-03-17T22:30:29.353Z,11.93
2018-03-17T22:32:57.485Z,11.35
2018-03-17T22:35:25.616Z,11.20
2018-03-17T22:37:53.757Z,11.45
2018-03-17T22:40:21.900Z,11.70
2018-03-17T22:42:50.046Z,11.23
2018-03-17T22:45:18.215Z,11.73
2018-03-17T22:47:46.331Z,12.13
2018-03-17T22:50:14.470Z,11.45
2018-03-17T22:52:42.598Z,11.07
2018-03-17T22:55:10.707Z,11.63
2018-03-17T22:57:38.815Z,11.93
2018-03-17T23:00:06.940Z,12.07
2018-03-17T23:02:35.063Z,11.98
2018-03-17T23:05:03.309Z,12.32
2018-03-17T23:07:31.437Z,11.85
2018-03-17T23:09:59.559Z,12.32
2018-03-17T23:12:27.700Z,11.27
2018-03-17T23:14:55.819Z,12.18
2018-03-17T23:17:24.048Z,11.52
2018-03-17T23:19:52.179Z,12.02
2018-03-17T23:22:20.327Z,11.65
2018-03-17T23:24:48.443Z,12.00
2018-03-17T23:27:17.335Z,11.02
2018-03-17T23:29:46.249Z,11.38
2018-03-17T23:32:14.411Z,11.77
2018-03-17T23:34:43.307Z,11.68
2018-03-17T23:37:11.447Z,10.93
2018-03-17T23:39:39.579Z,11.35
2018-03-17T23:42:07.741Z,12.18
2018-03-17T23:44:35.858Z,12.30
2018-03-17T23:47:03.978Z,12.25
2018-03-17T23:49:32.111Z,11.63
2018-03-17T23:52:00.244Z,12.00
2018-03-17T23:54:28.355Z,12.13
2018-03-17T23:56:56.480Z,11.60
2018-03-17T23:59:24.599Z,11.63
